Weather at Geneva Cointrin International Airport

Public forecast

Using degrees Celsius for public forecast. Weather courtesy of forecast.io.

Current aviation weather report (METAR) for Geneva Cointrin International Airport

Retrieved 2020/09/24 05:20 UTC (17 minutes ago):

LSGG 240520Z 16005KT 9999 FEW025 18/13 Q1011 NOSIG

Aviation forecast (TAF) for Geneva Cointrin International Airport

Retrieved 2020-09-24 03:33 UTC (2 hours ago):

TAF LSGG 240225Z 2403/2509 24016KT 9999 FEW060 BKN080 TX22/2415Z TN15/2405Z TN11/2505Z PROB30 TEMPO 2404/2407 RA PROB40 TEMPO 2412/2503 SHRA SCT045TCU PROB30 TEMPO 2417/2503 TSRA SCT035CB